createdAt,value
2023-03-16T00:02:06.189Z,95826.41
2023-03-16T00:04:37.485Z,95850.13
2023-03-16T00:07:09.467Z,95836.28
2023-03-16T00:09:40.942Z,95835.09
2023-03-16T00:12:18.566Z,95820.09
2023-03-16T00:14:47.528Z,95839.88
2023-03-16T00:17:20.209Z,95803.50
2023-03-16T00:19:55.578Z,95829.59
2023-03-16T00:22:24.810Z,95831.53
2023-03-16T00:24:52.684Z,95847.72
2023-03-16T00:27:20.094Z,95841.41
2023-03-16T00:29:48.236Z,95838.25
2023-03-16T00:32:20.008Z,95844.19
2023-03-16T00:34:47.665Z,95839.81
2023-03-16T00:37:16.788Z,95844.97
2023-03-16T00:39:44.613Z,95851.63
2023-03-16T00:42:12.633Z,95856.38
2023-03-16T00:44:39.465Z,95787.16
2023-03-16T00:47:07.885Z,95840.19
2023-03-16T00:49:36.056Z,95854.81
2023-03-16T00:52:07.142Z,95868.16
2023-03-16T00:54:33.888Z,95858.72
2023-03-16T00:57:01.752Z,95861.53
2023-03-16T00:59:29.401Z,95854.44
2023-03-16T01:01:56.339Z,95851.63
2023-03-16T01:04:23.191Z,95853.22
2023-03-16T01:06:51.784Z,95804.13
2023-03-16T01:09:18.343Z,95851.56
2023-03-16T01:11:45.338Z,95856.34
2023-03-16T01:14:12.138Z,95850.41
2023-03-16T01:16:38.913Z,95861.44
2023-03-16T01:19:05.497Z,95860.28
2023-03-16T01:21:33.824Z,95556.03
2023-03-16T01:24:00.548Z,95869.03
2023-03-16T01:26:28.050Z,95868.22
2023-03-16T01:28:55.004Z,95865.03
2023-03-16T01:31:22.060Z,95865.03
2023-03-16T01:33:48.689Z,95815.59
2023-03-16T01:36:18.083Z,95870.22
2023-03-16T01:38:45.112Z,95869.81
2023-03-16T01:41:12.634Z,95856.34
2023-03-16T01:43:40.636Z,95872.59
2023-03-16T01:46:07.228Z,95872.97
2023-03-16T01:49:01.982Z,95878.47
2023-03-16T01:51:43.024Z,95877.69
2023-03-16T01:54:22.034Z,95882.38
2023-03-16T01:56:55.573Z,95879.28
2023-03-16T01:59:27.623Z,95886.41
2023-03-16T02:01:55.529Z,95884.78
2023-03-16T02:04:46.578Z,95891.88
2023-03-16T02:07:17.185Z,95889.47
2023-03-16T02:09:47.191Z,95793.00
2023-03-16T02:12:19.186Z,95831.75
2023-03-16T02:14:46.916Z,95892.63
2023-03-16T02:17:20.953Z,95896.56
2023-03-16T02:19:59.618Z,95897.41
2023-03-16T02:22:26.278Z,95895.44
2023-03-16T02:24:53.914Z,95891.91
2023-03-16T02:27:41.243Z,95894.69
2023-03-16T02:30:14.056Z,95835.00
2023-03-16T02:32:42.420Z,95898.25
2023-03-16T02:35:12.999Z,95902.97
2023-03-16T02:37:41.827Z,95904.53
2023-03-16T02:40:24.270Z,95901.78
2023-03-16T02:42:55.833Z,95903.78
2023-03-16T02:45:27.892Z,95910.09
2023-03-16T02:47:55.266Z,95910.13
2023-03-16T02:50:21.882Z,95910.91
2023-03-16T02:52:48.657Z,95913.28
2023-03-16T02:55:15.705Z,95847.22
2023-03-16T02:57:42.299Z,95922.72
2023-03-16T03:00:17.148Z,95891.13
2023-03-16T03:02:44.238Z,95933.06
2023-03-16T03:05:11.644Z,95938.59
2023-03-16T03:07:38.547Z,95940.97
2023-03-16T03:10:06.864Z,95941.78
2023-03-16T03:12:34.152Z,95934.69
2023-03-16T03:15:00.786Z,95919.66
2023-03-16T03:17:30.269Z,95890.72
2023-03-16T03:20:02.400Z,95922.81
2023-03-16T03:22:28.972Z,95922.03
2023-03-16T03:24:55.599Z,95858.78
2023-03-16T03:27:22.642Z,95905.47
2023-03-16T03:29:49.364Z,95858.34
2023-03-16T03:32:15.976Z,95930.75
2023-03-16T03:34:42.678Z,95927.19
2023-03-16T03:37:09.316Z,95933.53
2023-03-16T03:39:36.060Z,95952.09
2023-03-16T03:42:03.070Z,95934.72
2023-03-16T03:44:29.694Z,95926.81
2023-03-16T03:46:56.376Z,95898.31
2023-03-16T03:49:22.979Z,95940.22
2023-03-16T03:51:49.561Z,95940.19
2023-03-16T03:54:16.177Z,95940.59
2023-03-16T03:56:43.184Z,95923.13
2023-03-16T03:59:09.786Z,95948.03
2023-03-16T04:01:36.428Z,95939.31
2023-03-16T04:04:02.992Z,95960.69
2023-03-16T04:06:29.624Z,95955.88
2023-03-16T04:08:56.711Z,95966.94
2023-03-16T04:11:23.280Z,95968.50
2023-03-16T04:13:53.414Z,95967.66
2023-03-16T04:16:20.976Z,95974.78
2023-03-16T04:18:47.837Z,95970.00
2023-03-16T04:21:16.776Z,95956.59
2023-03-16T04:23:44.029Z,95954.28
2023-03-16T04:26:11.185Z,95979.63
2023-03-16T04:28:37.867Z,95947.91
2023-03-16T04:31:07.248Z,95984.38
2023-03-16T04:33:38.632Z,95920.25
2023-03-16T04:36:06.727Z,95978.38
2023-03-16T04:38:34.319Z,95966.94
2023-03-16T04:41:02.716Z,95988.28
2023-03-16T04:43:30.477Z,95989.06
2023-03-16T04:45:57.128Z,95997.75
2023-03-16T04:48:24.038Z,95976.31
2023-03-16T04:50:51.448Z,95998.50
2023-03-16T04:53:18.046Z,96011.03
2023-03-16T04:55:46.246Z,95548.13
2023-03-16T04:58:13.898Z,95950.53
2023-03-16T05:00:41.608Z,96007.06
2023-03-16T05:03:10.401Z,96004.72
2023-03-16T05:05:38.791Z,95935.78
2023-03-16T05:08:06.570Z,96013.41
2023-03-16T05:10:34.557Z,95969.84
2023-03-16T05:13:01.244Z,96016.25
2023-03-16T05:15:28.106Z,96022.97
2023-03-16T05:17:58.566Z,96026.16
2023-03-16T05:20:25.560Z,96020.66
2023-03-16T05:22:52.607Z,96028.53
2023-03-16T05:25:20.201Z,96032.91
2023-03-16T05:27:50.413Z,96030.97
2023-03-16T05:30:18.471Z,96038.03
2023-03-16T05:32:45.370Z,95992.91
2023-03-16T05:35:13.764Z,95970.78
2023-03-16T05:37:41.594Z,95983.41
2023-03-16T05:40:17.339Z,96038.91
2023-03-16T05:42:48.016Z,96017.53
2023-03-16T05:45:15.959Z,96046.06
2023-03-16T05:47:43.918Z,96046.78
2023-03-16T05:50:12.744Z,96045.22
2023-03-16T05:52:40.181Z,96002.78
2023-03-16T05:55:08.751Z,96060.97
2023-03-16T05:57:35.491Z,96062.59
2023-03-16T06:00:13.171Z,96065.75
2023-03-16T06:02:40.109Z,96064.16
2023-03-16T06:05:07.579Z,96066.22
2023-03-16T06:07:34.970Z,96065.06
2023-03-16T06:10:01.793Z,95913.03
2023-03-16T06:12:28.423Z,96079.75
2023-03-16T06:14:55.026Z,95994.22
2023-03-16T06:17:21.604Z,96078.59
2023-03-16T06:19:48.343Z,96036.63
2023-03-16T06:22:15.011Z,96083.38
2023-03-16T06:24:41.793Z,96090.53
2023-03-16T06:27:08.426Z,96097.69
2023-03-16T06:29:35.247Z,96101.63
2023-03-16T06:32:01.991Z,96072.72
2023-03-16T06:34:28.664Z,96069.59
2023-03-16T06:36:55.273Z,96119.81
2023-03-16T06:39:21.929Z,96039.47
2023-03-16T06:41:48.482Z,96112.34
2023-03-16T06:44:15.057Z,95990.78
2023-03-16T06:46:41.760Z,96027.25
2023-03-16T06:49:08.440Z,96028.81
2023-03-16T06:51:35.056Z,96131.78
2023-03-16T06:54:01.752Z,96121.91
2023-03-16T06:56:28.439Z,96123.13
2023-03-16T06:58:55.168Z,96044.69
2023-03-16T07:01:23.051Z,96113.59
2023-03-16T07:03:49.890Z,96059.00
2023-03-16T07:06:17.201Z,96118.34
2023-03-16T07:08:43.854Z,96139.34
2023-03-16T07:11:10.462Z,96130.25
2023-03-16T07:13:37.617Z,96051.84
2023-03-16T07:16:05.021Z,96142.13
2023-03-16T07:18:31.847Z,96131.00
2023-03-16T07:20:58.881Z,96070.03
2023-03-16T07:23:25.794Z,95844.63
2023-03-16T07:25:52.877Z,96157.81
2023-03-16T07:28:19.932Z,96036.75
2023-03-16T07:31:02.408Z,96163.31
2023-03-16T07:33:30.358Z,96170.00
2023-03-16T07:35:56.984Z,96080.25
2023-03-16T07:38:23.662Z,96195.78
2023-03-16T07:40:52.295Z,96167.94
2023-03-16T07:43:18.903Z,96139.47
2023-03-16T07:45:50.238Z,96175.00
2023-03-16T07:48:17.901Z,96244.91
2023-03-16T07:50:46.765Z,96146.91
2023-03-16T07:53:14.530Z,96035.88
2023-03-16T07:55:42.854Z,96160.19
2023-03-16T07:58:10.805Z,96191.03
2023-03-16T08:00:38.081Z,96185.63
2023-03-16T08:03:04.753Z,96108.03
2023-03-16T08:05:34.478Z,96193.22
2023-03-16T08:08:01.937Z,96153.97
2023-03-16T08:10:29.692Z,96197.53
2023-03-16T08:12:56.792Z,96161.91
2023-03-16T08:15:25.044Z,96225.28
2023-03-16T08:17:52.523Z,96209.44
2023-03-16T08:20:19.339Z,96219.69
2023-03-16T08:22:46.820Z,96162.63
2023-03-16T08:25:15.349Z,96218.50
2023-03-16T08:27:43.070Z,96235.56
2023-03-16T08:30:13.153Z,96221.28
2023-03-16T08:32:41.182Z,96231.19
2023-03-16T08:35:14.028Z,96222.09
2023-03-16T08:37:41.608Z,96164.25
2023-03-16T08:40:13.429Z,96189.56
2023-03-16T08:42:40.239Z,96232.81
2023-03-16T08:45:12.351Z,96224.50
2023-03-16T08:47:40.650Z,96234.03
2023-03-16T08:50:09.245Z,95958.44
2023-03-16T08:52:38.872Z,96241.53
2023-03-16T08:55:07.147Z,96237.16
2023-03-16T08:57:33.933Z,96246.19
2023-03-16T09:00:01.524Z,96244.16
2023-03-16T09:02:28.162Z,96240.47
2023-03-16T09:04:54.850Z,96189.00
2023-03-16T09:07:21.993Z,96159.53
2023-03-16T09:09:48.719Z,95889.94
2023-03-16T09:12:15.360Z,96221.91
2023-03-16T09:14:42.023Z,96254.47
2023-03-16T09:17:08.591Z,96210.09
2023-03-16T09:19:50.497Z,96249.38
2023-03-16T09:22:18.531Z,96261.53
2023-03-16T09:24:45.223Z,96267.75
2023-03-16T09:27:12.197Z,96259.19
2023-03-16T09:29:38.848Z,96258.56
2023-03-16T09:32:06.152Z,95863.72
2023-03-16T09:34:33.408Z,96205.34
2023-03-16T09:37:00.596Z,96271.28
2023-03-16T09:39:27.658Z,96264.00
2023-03-16T09:42:02.779Z,96262.44
2023-03-16T09:44:32.432Z,96272.00
2023-03-16T09:47:01.991Z,96188.75
2023-03-16T09:49:36.427Z,96099.25
2023-03-16T09:52:21.324Z,96273.28
2023-03-16T09:54:59.809Z,96278.63
2023-03-16T09:57:28.495Z,96276.09
2023-03-16T10:00:10.737Z,96273.31
2023-03-16T10:02:56.065Z,96272.47
2023-03-16T10:05:24.336Z,96274.38
2023-03-16T10:08:15.538Z,96278.63
2023-03-16T10:11:13.572Z,96270.06
2023-03-16T10:14:03.236Z,96284.84
2023-03-16T10:16:38.302Z,96266.91
2023-03-16T10:19:13.542Z,96280.50
2023-03-16T10:21:41.969Z,96280.16
2023-03-16T10:24:27.176Z,96275.50
2023-03-16T10:27:00.696Z,96275.78
2023-03-16T10:29:32.209Z,96274.28
2023-03-16T10:32:12.739Z,96292.78
2023-03-16T10:34:39.366Z,96271.72
2023-03-16T10:37:06.173Z,96252.59
2023-03-16T10:39:37.147Z,96203.31
2023-03-16T10:42:03.804Z,96264.09
2023-03-16T10:44:30.813Z,96260.97
2023-03-16T10:47:06.233Z,96265.97
2023-03-16T10:49:42.298Z,96268.84
2023-03-16T10:52:29.292Z,96272.84
2023-03-16T10:55:02.543Z,96250.25
2023-03-16T10:57:35.218Z,96280.78
2023-03-16T11:00:28.997Z,95987.19
2023-03-16T11:02:58.426Z,96277.41
2023-03-16T11:05:31.493Z,96276.56
2023-03-16T11:08:10.717Z,96263.81
2023-03-16T11:10:49.335Z,95758.50
2023-03-16T11:13:19.489Z,96264.44
2023-03-16T11:15:55.944Z,96218.22
2023-03-16T11:18:45.092Z,96271.16
2023-03-16T11:21:17.414Z,96267.56
2023-03-16T11:23:51.340Z,96273.03
2023-03-16T11:26:25.280Z,96267.97
2023-03-16T11:29:03.706Z,96279.00
2023-03-16T11:31:50.701Z,96265.97
2023-03-16T11:34:20.076Z,96275.81
2023-03-16T11:37:00.006Z,96287.69
2023-03-16T11:39:40.421Z,96277.31
2023-03-16T11:42:30.791Z,96280.28
2023-03-16T11:45:26.012Z,96281.94
2023-03-16T11:48:19.836Z,96294.75
2023-03-16T11:51:04.435Z,96292.44
2023-03-16T11:53:48.499Z,96209.78
2023-03-16T11:56:30.781Z,96288.53
2023-03-16T11:58:57.509Z,96296.06
2023-03-16T12:01:43.057Z,96305.28
2023-03-16T12:04:36.966Z,96303.78
2023-03-16T12:07:22.303Z,96307.75
2023-03-16T12:09:58.522Z,96308.56
2023-03-16T12:12:51.659Z,96296.66
2023-03-16T12:15:30.025Z,96307.75
2023-03-16T12:18:09.712Z,96338.63
2023-03-16T12:20:57.127Z,96287.00
2023-03-16T12:23:35.985Z,96051.63
2023-03-16T12:26:03.794Z,96317.78
2023-03-16T12:28:33.495Z,96329.03
2023-03-16T12:31:09.496Z,96436.03
2023-03-16T12:33:46.478Z,96325.88
2023-03-16T12:36:16.935Z,96329.09
2023-03-16T12:39:05.257Z,96336.78
2023-03-16T12:41:44.180Z,96334.88
2023-03-16T12:44:17.963Z,96338.94
2023-03-16T12:47:08.915Z,96344.06
2023-03-16T12:49:37.188Z,96343.38
2023-03-16T12:52:10.193Z,96339.47
2023-03-16T12:54:48.941Z,96345.81
2023-03-16T12:57:17.109Z,96341.84
2023-03-16T12:59:52.986Z,96353.31
2023-03-16T13:02:26.588Z,96366.06
2023-03-16T13:05:00.538Z,96360.91
2023-03-16T13:07:31.191Z,96257.78
2023-03-16T13:10:01.880Z,96361.28
2023-03-16T13:12:37.022Z,96367.25
2023-03-16T13:15:19.451Z,96371.59
2023-03-16T13:17:48.519Z,96364.06
2023-03-16T13:20:31.166Z,96374.75
2023-03-16T13:23:08.217Z,96371.19
2023-03-16T13:25:42.011Z,96379.91
2023-03-16T13:28:14.030Z,96361.19
2023-03-16T13:30:48.568Z,96392.56
2023-03-16T13:33:27.278Z,96366.78
2023-03-16T13:35:57.457Z,96390.19
2023-03-16T13:38:27.622Z,96400.50
2023-03-16T13:40:57.506Z,96394.16
2023-03-16T13:43:29.847Z,96400.03
2023-03-16T13:45:56.615Z,96402.00
2023-03-16T13:48:23.471Z,96398.16
2023-03-16T13:50:57.964Z,96352.94
2023-03-16T13:53:30.357Z,96409.69
2023-03-16T13:56:00.148Z,96410.97
2023-03-16T13:58:35.293Z,96356.72
2023-03-16T14:01:03.970Z,96385.66
2023-03-16T14:03:42.588Z,96344.03
2023-03-16T14:06:22.621Z,96416.03
2023-03-16T14:08:53.972Z,96412.97
2023-03-16T14:11:20.845Z,96346.38
2023-03-16T14:13:53.957Z,96431.41
2023-03-16T14:16:24.345Z,96434.59
2023-03-16T14:19:00.950Z,96417.13
2023-03-16T14:21:30.189Z,96433.00
2023-03-16T14:24:05.875Z,96437.78
2023-03-16T14:26:44.032Z,96434.66
2023-03-16T14:29:30.553Z,96439.78
2023-03-16T14:31:58.911Z,96442.56
2023-03-16T14:34:38.526Z,96445.25
2023-03-16T14:37:10.378Z,96434.41
2023-03-16T14:39:37.845Z,96375.59
2023-03-16T14:42:06.815Z,96458.66
2023-03-16T14:44:36.943Z,96464.31
2023-03-16T14:47:05.077Z,96464.81
2023-03-16T14:49:34.908Z,96460.16
2023-03-16T14:52:17.470Z,96455.59
2023-03-16T14:54:44.033Z,96435.38
2023-03-16T14:57:17.150Z,96470.81
2023-03-16T14:59:43.827Z,96474.19
2023-03-16T15:02:28.575Z,96462.66
2023-03-16T15:04:57.045Z,96482.75
2023-03-16T15:07:28.570Z,96487.47
2023-03-16T15:09:59.716Z,96487.97
2023-03-16T15:12:26.652Z,96473.09
2023-03-16T15:15:11.944Z,96497.16
2023-03-16T15:17:39.009Z,96494.22
2023-03-16T15:20:07.265Z,96504.78
2023-03-16T15:22:37.178Z,96487.09
2023-03-16T15:25:26.252Z,96505.53
2023-03-16T15:27:54.313Z,96508.59
2023-03-16T15:30:24.486Z,96515.22
2023-03-16T15:32:51.589Z,96516.19
2023-03-16T15:35:18.773Z,96475.59
2023-03-16T15:37:45.653Z,96522.69
2023-03-16T15:40:20.611Z,96529.84
2023-03-16T15:42:47.240Z,96527.81
2023-03-16T15:45:18.002Z,96512.09
2023-03-16T15:47:45.157Z,96492.34
2023-03-16T15:50:13.998Z,96534.41
2023-03-16T15:52:44.393Z,96543.28
2023-03-16T15:55:23.472Z,96522.72
2023-03-16T15:57:58.768Z,96542.38
2023-03-16T16:00:33.193Z,96553.88
2023-03-16T16:03:02.244Z,96556.22
2023-03-16T16:05:31.020Z,96561.66
2023-03-16T16:07:58.406Z,96564.84
2023-03-16T16:10:27.087Z,96501.97
2023-03-16T16:12:55.907Z,96572.06
2023-03-16T16:15:32.583Z,96562.13
2023-03-16T16:18:20.303Z,96573.28
2023-03-16T16:20:46.651Z,96564.50
2023-03-16T16:23:13.955Z,96551.00
2023-03-16T16:25:42.473Z,96582.84
2023-03-16T16:28:18.887Z,96590.47
2023-03-16T16:30:46.326Z,96590.47
2023-03-16T16:33:30.586Z,96591.28
2023-03-16T16:36:03.452Z,96607.00
2023-03-16T16:38:31.686Z,96599.78
2023-03-16T16:41:01.810Z,96608.84
2023-03-16T16:43:28.439Z,96609.22
2023-03-16T16:45:55.403Z,96614.75
2023-03-16T16:48:31.848Z,96616.19
2023-03-16T16:51:00.542Z,96610.66
2023-03-16T16:53:28.097Z,96625.22
2023-03-16T16:55:55.844Z,96578.94
2023-03-16T16:58:24.875Z,96637.81
2023-03-16T17:00:55.030Z,96524.38
2023-03-16T17:03:28.412Z,96663.88
2023-03-16T17:05:56.796Z,96655.00
2023-03-16T17:08:24.600Z,96563.13
2023-03-16T17:10:53.264Z,96663.34
2023-03-16T17:13:40.767Z,96662.53
2023-03-16T17:16:17.222Z,96663.81
2023-03-16T17:18:45.443Z,96671.03
2023-03-16T17:21:17.404Z,96686.03
2023-03-16T17:23:44.683Z,96678.91
2023-03-16T17:26:19.247Z,96686.88
2023-03-16T17:28:50.445Z,96684.56
2023-03-16T17:31:21.551Z,96615.25
2023-03-16T17:33:48.313Z,96697.81
2023-03-16T17:36:19.064Z,96706.34
2023-03-16T17:38:45.631Z,96623.97
2023-03-16T17:41:33.073Z,96707.75
2023-03-16T17:44:04.932Z,96730.13
2023-03-16T17:46:31.813Z,96717.19
2023-03-16T17:49:00.175Z,96681.63
2023-03-16T17:51:27.310Z,96682.31
2023-03-16T17:53:54.721Z,96732.41
2023-03-16T17:56:24.614Z,96728.38
2023-03-16T17:58:54.027Z,96738.31
2023-03-16T18:01:24.061Z,96745.31
2023-03-16T18:03:50.722Z,96744.19
2023-03-16T18:06:21.019Z,96748.59
2023-03-16T18:08:51.143Z,96746.13
2023-03-16T18:11:25.336Z,96755.50
2023-03-16T18:13:52.369Z,96721.28
2023-03-16T18:16:28.156Z,96757.25
2023-03-16T18:18:59.003Z,96735.66
2023-03-16T18:21:27.106Z,96744.44
2023-03-16T18:23:54.377Z,96752.56
2023-03-16T18:26:23.670Z,96750.56
2023-03-16T18:28:52.484Z,96748.69
2023-03-16T18:31:29.601Z,96764.72
2023-03-16T18:34:00.692Z,96706.22
2023-03-16T18:36:31.447Z,96765.13
2023-03-16T18:39:01.645Z,96766.31
2023-03-16T18:41:33.749Z,96757.22
2023-03-16T18:44:06.113Z,96781.31
2023-03-16T18:46:35.518Z,96783.09
2023-03-16T18:49:10.530Z,96799.09
2023-03-16T18:51:37.508Z,96791.72
2023-03-16T18:54:06.386Z,96706.09
2023-03-16T18:56:33.022Z,96746.50
2023-03-16T18:58:59.642Z,96813.41
2023-03-16T19:01:32.319Z,96804.16
2023-03-16T19:04:01.312Z,96810.91
2023-03-16T19:06:35.719Z,96819.78
2023-03-16T19:09:13.970Z,96812.44
2023-03-16T19:11:44.246Z,96810.56
2023-03-16T19:14:17.423Z,96826.13
2023-03-16T19:16:45.242Z,96824.06
2023-03-16T19:19:13.195Z,96823.00
2023-03-16T19:21:39.984Z,96780.44
2023-03-16T19:24:08.378Z,96826.22
2023-03-16T19:26:39.073Z,96840.28
2023-03-16T19:29:05.900Z,96815.28
2023-03-16T19:31:33.592Z,96717.72
2023-03-16T19:34:00.296Z,96832.72
2023-03-16T19:36:31.937Z,96840.97
2023-03-16T19:38:58.888Z,96768.72
2023-03-16T19:41:37.742Z,96843.00
2023-03-16T19:44:08.692Z,96850.94
2023-03-16T19:46:35.444Z,96433.19
2023-03-16T19:49:02.053Z,96862.59
2023-03-16T19:51:29.995Z,96867.03
2023-03-16T19:53:59.128Z,96867.56
2023-03-16T19:56:27.659Z,96869.56
2023-03-16T19:58:55.642Z,96872.06
2023-03-16T20:01:30.324Z,96876.25
2023-03-16T20:03:59.666Z,96867.28
2023-03-16T20:06:27.232Z,96810.25
2023-03-16T20:08:53.869Z,96873.50
2023-03-16T20:11:31.677Z,96885.09
2023-03-16T20:13:59.679Z,96890.75
2023-03-16T20:16:30.050Z,96901.97
2023-03-16T20:18:59.501Z,96887.91
2023-03-16T20:21:27.525Z,96896.72
2023-03-16T20:23:54.636Z,96902.41
2023-03-16T20:26:24.546Z,96904.97
2023-03-16T20:28:52.106Z,96904.81
2023-03-16T20:31:34.700Z,96904.63
2023-03-16T20:34:01.679Z,96919.09
2023-03-16T20:36:33.236Z,96822.13
2023-03-16T20:38:59.849Z,96903.66
2023-03-16T20:41:29.504Z,96922.00
2023-03-16T20:43:58.573Z,96920.13
2023-03-16T20:46:28.818Z,96920.56
2023-03-16T20:48:56.206Z,96924.03
2023-03-16T20:51:23.395Z,96925.13
2023-03-16T20:53:50.722Z,96890.44
2023-03-16T20:56:22.908Z,96934.31
2023-03-16T20:58:51.310Z,96934.84
2023-03-16T21:01:21.288Z,96940.91
2023-03-16T21:03:50.783Z,96941.81
2023-03-16T21:06:28.533Z,96938.56
2023-03-16T21:08:57.239Z,96918.56
2023-03-16T21:11:34.822Z,96946.97
2023-03-16T21:14:01.645Z,96951.19
2023-03-16T21:16:29.122Z,96972.97
2023-03-16T21:18:56.128Z,96956.63
2023-03-16T21:21:23.449Z,96960.53
2023-03-16T21:23:50.538Z,96948.44
2023-03-16T21:26:20.793Z,96941.03
2023-03-16T21:29:18.526Z,96964.94
2023-03-16T21:31:45.094Z,96969.03
2023-03-16T21:34:23.819Z,96970.81
2023-03-16T21:36:50.679Z,96977.59
2023-03-16T21:39:23.772Z,96917.13
2023-03-16T21:41:50.869Z,96979.72
2023-03-16T21:44:18.486Z,96978.88
2023-03-16T21:46:46.782Z,96921.69
2023-03-16T21:49:14.316Z,96892.03
2023-03-16T21:51:43.185Z,96964.00
2023-03-16T21:54:14.894Z,96977.44
2023-03-16T21:56:42.336Z,96983.00
2023-03-16T21:59:09.331Z,96976.78
2023-03-16T22:01:42.840Z,96555.81
2023-03-16T22:04:17.867Z,96919.63
2023-03-16T22:06:45.407Z,96976.03
2023-03-16T22:09:19.339Z,96939.66
2023-03-16T22:11:45.976Z,96996.00
2023-03-16T22:14:12.725Z,96979.03
2023-03-16T22:16:40.891Z,96978.13
2023-03-16T22:19:13.447Z,96989.63
2023-03-16T22:21:44.614Z,96988.28
2023-03-16T22:24:17.738Z,96989.50
2023-03-16T22:26:44.647Z,96998.47
2023-03-16T22:29:29.548Z,96944.50
2023-03-16T22:31:59.526Z,96989.63
2023-03-16T22:34:31.461Z,96990.50
2023-03-16T22:36:58.733Z,96990.25
2023-03-16T22:39:25.611Z,96997.13
2023-03-16T22:41:52.316Z,97019.66
2023-03-16T22:44:22.676Z,97009.59
2023-03-16T22:46:50.786Z,96937.25
2023-03-16T22:49:27.155Z,96928.91
2023-03-16T22:51:56.842Z,97018.22
2023-03-16T22:54:28.708Z,96990.25
2023-03-16T22:56:55.611Z,97038.63
2023-03-16T22:59:25.276Z,97022.94
2023-03-16T23:01:52.132Z,97052.69
2023-03-16T23:04:22.286Z,97058.38
2023-03-16T23:06:51.458Z,97046.94
2023-03-16T23:09:20.460Z,97045.78
2023-03-16T23:11:49.089Z,97060.91
2023-03-16T23:14:20.415Z,97060.22
2023-03-16T23:16:48.428Z,97015.75
2023-03-16T23:19:26.131Z,97045.97
2023-03-16T23:21:55.081Z,97051.41
2023-03-16T23:24:22.162Z,97079.97
2023-03-16T23:26:49.994Z,97079.25
2023-03-16T23:29:16.770Z,97094.38
2023-03-16T23:31:43.328Z,97042.28
2023-03-16T23:34:15.481Z,97097.72
2023-03-16T23:36:43.304Z,97100.25
2023-03-16T23:39:11.032Z,97108.66
2023-03-16T23:41:39.697Z,97092.66
2023-03-16T23:44:07.809Z,97099.09
2023-03-16T23:46:35.501Z,97079.66
2023-03-16T23:49:04.546Z,97138.84
2023-03-16T23:51:36.101Z,97116.00
2023-03-16T23:54:15.922Z,97134.69
2023-03-16T23:56:42.486Z,97143.56
2023-03-16T23:59:09.291Z,97137.13
